Time;durP1;ratioP1;P1;durP2;ratioP2;P2;SDS_P1;SDS_P2;PMS_P1;PMS_P2;Temp;Humidity;BMP_temperature;BMP_pressure;BME280_temperature;BME280_humidity;BME280_pressure;Samples;Min_cycle;Max_cycle;Signal;HPM_P1;HPM_P2
2023/07/28 00:01:24;;;;;;;0.73;0.73;;;;;;;19.64;73.10;94876.34;4346621;32;20193;-62
2023/07/28 00:03:50;;;;;;;3.30;1.50;;;;;;;19.65;73.09;94877.13;4347376;32;20262;-62
2023/07/28 00:06:15;;;;;;;1.27;1.27;;;;;;;19.66;73.00;94867.91;4361955;32;20207;-63
2023/07/28 00:08:40;;;;;;;1.13;1.13;;;;;;;19.60;73.12;94867.44;4340203;32;20281;-63
2023/07/28 00:11:12;;;;;;;1.03;1.03;;;;;;;19.58;73.33;94864.31;4350123;32;20265;-62
2023/07/28 00:13:38;;;;;;;1.10;1.10;;;;;;;19.57;73.17;94865.47;4341579;32;20271;-62
2023/07/28 00:16:04;;;;;;;1.10;1.10;;;;;;;19.55;73.40;94862.34;4351597;32;20193;-62
2023/07/28 00:18:29;;;;;;;1.57;1.47;;;;;;;19.60;73.26;94861.28;4343652;32;20257;-62
2023/07/28 00:20:55;;;;;;;0.87;0.87;;;;;;;19.56;73.00;94859.31;4335505;32;20193;-62
2023/07/28 00:23:20;;;;;;;1.00;1.00;;;;;;;19.56;73.16;94855.84;4351993;32;20243;-63
2023/07/28 00:25:45;;;;;;;1.10;1.00;;;;;;;19.49;73.27;94851.09;4341133;32;20264;-62
2023/07/28 00:28:11;;;;;;;1.20;1.00;;;;;;;19.54;73.33;94860.78;4345291;32;20271;-63
2023/07/28 00:30:36;;;;;;;0.60;0.60;;;;;;;19.45;73.09;94861.03;4343561;32;20197;-62
2023/07/28 00:33:01;;;;;;;1.17;1.07;;;;;;;19.52;73.11;94857.72;4343227;32;20315;-62
2023/07/28 00:35:28;;;;;;;0.80;0.80;;;;;;;19.59;72.77;94857.03;4341687;32;20201;-62
2023/07/28 00:37:53;;;;;;;0.50;0.50;;;;;;;19.58;72.74;94850.09;4344984;32;20215;-62
2023/07/28 00:40:19;;;;;;;1.10;1.10;;;;;;;19.55;72.86;94854.28;4349772;32;20217;-62
2023/07/28 00:42:45;;;;;;;0.80;0.80;;;;;;;19.59;72.59;94852.41;4342871;32;20185;-62
2023/07/28 00:45:10;;;;;;;3.10;1.03;;;;;;;19.55;72.54;94848.91;4353922;32;20197;-62
2023/07/28 00:47:36;;;;;;;0.50;0.50;;;;;;;19.53;72.41;94848.50;4346639;32;20189;-62
2023/07/28 00:50:02;;;;;;;2.10;0.80;;;;;;;19.49;72.69;94847.63;4360640;32;20197;-62
2023/07/28 00:52:28;;;;;;;0.77;0.60;;;;;;;19.49;72.64;94853.81;4357952;32;20194;-62
2023/07/28 00:54:53;;;;;;;0.50;0.50;;;;;;;19.47;72.83;94849.91;4359777;32;20188;-63
2023/07/28 00:57:19;;;;;;;0.67;0.67;;;;;;;19.41;72.73;94846.75;4346276;32;20211;-62
2023/07/28 00:59:45;;;;;;;0.70;0.70;;;;;;;19.44;72.82;94851.41;4356095;32;20242;-63
2023/07/28 01:02:11;;;;;;;0.70;0.70;;;;;;;19.40;72.83;94861.34;4347418;32;20322;-62
2023/07/28 01:04:36;;;;;;;0.50;0.50;;;;;;;19.51;73.08;94850.78;4352153;32;20189;-62
2023/07/28 01:07:10;;;;;;;0.80;0.80;;;;;;;19.56;72.75;94853.91;4333549;32;20299;-62
2023/07/28 01:10:12;;;;;;;0.40;0.40;;;;;;;19.58;72.85;94850.88;4341114;32;20185;-62
2023/07/28 01:12:37;;;;;;;0.80;0.80;;;;;;;19.53;72.52;94856.59;4334396;32;20240;-62
2023/07/28 01:15:03;;;;;;;0.57;0.57;;;;;;;19.56;72.76;94856.59;4333987;32;20237;-62
2023/07/28 01:17:29;;;;;;;0.17;0.17;;;;;;;19.56;72.04;94859.31;4342248;32;20249;-63
2023/07/28 01:19:54;;;;;;;0.20;0.20;;;;;;;19.49;72.53;94859.19;4340134;32;20255;-62
2023/07/28 01:22:25;;;;;;;0.30;0.30;;;;;;;19.38;71.94;94855.53;4343794;32;20224;-62
2023/07/28 01:24:59;;;;;;;1.27;0.90;;;;;;;19.40;72.14;94850.56;4341866;32;20231;-62
2023/07/28 01:27:25;;;;;;;0.63;0.63;;;;;;;19.37;71.62;94851.28;4347195;32;20208;-62
2023/07/28 01:29:51;;;;;;;1.50;0.50;;;;;;;19.37;71.85;94847.81;4344185;32;20204;-63
2023/07/28 01:32:16;;;;;;;0.50;0.50;;;;;;;19.35;71.91;94852.78;4349589;32;20190;-63
2023/07/28 01:34:42;;;;;;;0.27;0.27;;;;;;;19.38;71.78;94857.44;4342939;32;20193;-62
2023/07/28 01:37:07;;;;;;;1.90;0.87;;;;;;;19.34;71.41;94857.38;4351866;32;20201;-62
2023/07/28 01:39:33;;;;;;;1.07;0.63;;;;;;;19.34;71.86;94853.91;4340296;32;20211;-62
2023/07/28 01:41:58;;;;;;;0.40;0.40;;;;;;;19.36;71.73;94855.13;4338822;32;20508;-62
2023/07/28 01:44:24;;;;;;;0.53;0.53;;;;;;;19.33;71.33;94855.09;4337308;32;20194;-62
2023/07/28 01:46:49;;;;;;;1.07;1.07;;;;;;;19.32;71.56;94850.84;4344040;32;20205;-62
2023/07/28 01:49:14;;;;;;;0.30;0.30;;;;;;;19.29;71.79;94846.94;4338818;32;20193;-62
2023/07/28 01:51:40;;;;;;;0.73;0.73;;;;;;;19.29;71.75;94854.25;4335900;32;20197;-62
2023/07/28 01:54:05;;;;;;;0.43;0.43;;;;;;;19.33;71.80;94850.44;4344486;32;20190;-62
2023/07/28 01:56:30;;;;;;;0.77;0.77;;;;;;;19.22;70.96;94847.59;4337795;32;20198;-62
2023/07/28 01:58:55;;;;;;;0.40;0.40;;;;;;;19.25;71.27;94842.66;4331136;32;20201;-62
2023/07/28 02:01:21;;;;;;;0.60;0.60;;;;;;;19.31;71.19;94849.28;4335429;32;20224;-60
2023/07/28 02:03:46;;;;;;;0.70;0.70;;;;;;;19.27;70.69;94851.13;4341850;32;20212;-62
2023/07/28 02:06:11;;;;;;;2.60;1.13;;;;;;;19.20;70.57;94846.41;4332794;32;20194;-63
2023/07/28 02:08:37;;;;;;;0.10;0.10;;;;;;;19.27;70.61;94851.13;4335883;32;20201;-62
2023/07/28 02:11:02;;;;;;;0.60;0.60;;;;;;;19.24;70.85;94841.87;4339767;32;20197;-62
2023/07/28 02:13:27;;;;;;;0.57;0.57;;;;;;;19.18;70.49;94849.44;4341302;32;20204;-62
2023/07/28 02:15:53;;;;;;;0.70;0.70;;;;;;;19.22;70.55;94847.59;4331472;32;20193;-62
2023/07/28 02:18:18;;;;;;;0.97;0.60;;;;;;;19.22;70.74;94850.28;4345400;32;20190;-63
2023/07/28 02:20:44;;;;;;;0.80;0.80;;;;;;;19.26;70.49;94846.88;4320813;32;20213;-63
2023/07/28 02:23:09;;;;;;;0.43;0.43;;;;;;;19.27;70.58;94857.28;4334463;32;20255;-62
2023/07/28 02:25:34;;;;;;;0.57;0.57;;;;;;;19.27;70.67;94856.50;4332191;32;20206;-62
2023/07/28 02:27:59;;;;;;;0.50;0.50;;;;;;;19.26;70.44;94854.97;4327545;32;20182;-62
2023/07/28 02:30:25;;;;;;;0.50;0.50;;;;;;;19.24;70.71;94860.69;4316187;32;20237;-62
2023/07/28 02:32:50;;;;;;;2.20;0.50;;;;;;;19.20;70.62;94852.56;4343965;32;20209;-62
2023/07/28 02:35:17;;;;;;;0.67;0.67;;;;;;;19.29;71.27;94848.84;4320598;32;20252;-63
2023/07/28 02:37:42;;;;;;;1.03;0.97;;;;;;;19.22;70.21;94852.97;4324332;32;20201;-63
2023/07/28 02:40:08;;;;;;;0.50;0.50;;;;;;;19.13;70.32;94847.06;4328812;32;20186;-63
2023/07/28 02:42:35;;;;;;;0.30;0.30;;;;;;;19.15;70.09;94850.16;4336482;32;20208;-62
2023/07/28 02:45:01;;;;;;;0.30;0.30;;;;;;;19.03;70.03;94847.66;4331654;32;20205;-62
2023/07/28 02:47:26;;;;;;;0.47;0.47;;;;;;;19.07;70.21;94840.44;4328940;32;20194;-62
2023/07/28 02:49:51;;;;;;;0.80;0.80;;;;;;;19.13;70.07;94847.06;4322112;32;20258;-60
2023/07/28 02:52:17;;;;;;;0.50;0.50;;;;;;;19.03;70.04;94853.03;4335657;32;20204;-62
2023/07/28 02:54:42;;;;;;;0.53;0.53;;;;;;;19.09;70.46;94848.94;4338971;32;20193;-62
2023/07/28 02:57:08;;;;;;;0.93;0.83;;;;;;;19.12;70.45;94850.13;4345970;32;20210;-62
2023/07/28 02:59:33;;;;;;;0.70;0.70;;;;;;;19.11;70.31;94849.34;4331839;32;20189;-62
2023/07/28 03:01:58;;;;;;;0.30;0.30;;;;;;;19.12;70.24;94852.81;4338840;32;20237;-62
2023/07/28 03:04:24;;;;;;;0.47;0.47;;;;;;;19.15;70.69;94849.37;4328296;32;20193;-63
2023/07/28 03:06:49;;;;;;;1.90;0.50;;;;;;;19.15;70.32;94841.31;4336843;32;20209;-62
2023/07/28 03:09:15;;;;;;;0.67;0.67;;;;;;;19.20;70.90;94846.41;4331752;32;20214;-62
2023/07/28 03:11:42;;;;;;;0.43;0.43;;;;;;;19.21;70.62;94837.97;4344584;32;20193;-62
2023/07/28 03:14:07;;;;;;;2.87;1.13;;;;;;;19.18;70.43;94843.28;4333341;32;20201;-63
2023/07/28 03:16:33;;;;;;;0.73;0.73;;;;;;;19.17;70.37;94842.53;4339427;32;20198;-63
2023/07/28 03:18:58;;;;;;;0.60;0.60;;;;;;;19.17;70.71;94842.53;4337716;32;20193;-62
2023/07/28 03:21:23;;;;;;;0.90;0.90;;;;;;;19.14;70.76;94848.59;4342167;32;20212;-62
2023/07/28 03:23:49;;;;;;;0.30;0.30;;;;;;;19.17;70.36;94858.66;4339459;32;20248;-62
2023/07/28 03:26:14;;;;;;;0.50;0.50;;;;;;;19.19;70.66;94844.84;4343630;32;20197;-62
2023/07/28 03:28:39;;;;;;;0.40;0.40;;;;;;;19.20;70.17;94847.19;4337901;32;20197;-62
2023/07/28 03:31:05;;;;;;;0.83;0.83;;;;;;;19.19;70.18;94847.53;4334707;32;20227;-62
2023/07/28 03:33:30;;;;;;;0.20;0.20;;;;;;;19.17;69.67;94847.13;4353669;32;20212;-62
2023/07/28 03:35:56;;;;;;;0.60;0.60;;;;;;;19.15;70.01;94852.84;4329245;32;20245;-62
2023/07/28 03:38:24;;;;;;;2.60;1.07;;;;;;;19.17;70.38;94847.91;4337997;32;20201;-62
2023/07/28 03:40:56;;;;;;;0.67;0.67;;;;;;;19.16;70.44;94850.94;4315253;32;20224;-62
2023/07/28 03:43:22;;;;;;;0.57;0.57;;;;;;;19.25;70.56;94853.41;4334254;32;20193;-62
2023/07/28 03:45:48;;;;;;;1.23;0.23;;;;;;;19.20;69.68;94847.19;4336755;32;20252;-62
2023/07/28 03:48:13;;;;;;;0.73;0.73;;;;;;;19.20;69.81;94855.25;4340110;32;20237;-62
2023/07/28 03:50:39;;;;;;;0.40;0.40;;;;;;;19.18;69.60;94848.69;4343043;32;20247;-62
2023/07/28 03:53:04;;;;;;;0.37;0.37;;;;;;;19.16;69.80;94846.34;4341607;32;20211;-62
2023/07/28 03:55:29;;;;;;;0.10;0.10;;;;;;;19.18;70.06;94856.75;4341231;32;20256;-62
2023/07/28 03:57:55;;;;;;;0.43;0.43;;;;;;;19.15;69.77;94855.53;4341230;32;20185;-62
2023/07/28 04:00:20;;;;;;;0.53;0.53;;;;;;;19.13;69.74;94852.44;4337801;32;20229;-62
2023/07/28 04:02:46;;;;;;;1.13;1.10;;;;;;;19.16;70.12;94856.31;4343737;32;20185;-62
2023/07/28 04:05:11;;;;;;;0.53;0.53;;;;;;;19.12;69.95;94850.88;4337751;32;20265;-63
2023/07/28 04:07:37;;;;;;;0.80;0.80;;;;;;;19.15;70.14;94855.53;4339314;32;20189;-63
2023/07/28 04:10:02;;;;;;;0.70;0.70;;;;;;;19.12;70.03;94855.50;4346299;32;20209;-62
2023/07/28 04:12:28;;;;;;;0.73;0.73;;;;;;;19.14;70.36;94845.91;4331644;32;20186;-62
2023/07/28 04:14:53;;;;;;;0.50;0.50;;;;;;;19.08;70.25;94844.69;4346796;32;20303;-62
2023/07/28 04:17:18;;;;;;;0.20;0.20;;;;;;;19.15;70.52;94844.78;4348794;32;20291;-62
2023/07/28 04:19:43;;;;;;;0.73;0.73;;;;;;;19.15;70.55;94855.53;4345321;32;20207;-62
2023/07/28 04:22:09;;;;;;;0.57;0.57;;;;;;;19.09;70.21;94861.59;4357635;32;20220;-62
2023/07/28 04:24:34;;;;;;;0.60;0.60;;;;;;;19.05;70.91;94856.16;4335756;32;20213;-62
2023/07/28 04:27:00;;;;;;;0.10;0.10;;;;;;;19.14;70.79;94855.91;4344134;32;20229;-63
2023/07/28 04:29:26;;;;;;;0.40;0.40;;;;;;;19.19;70.71;94858.28;4343064;32;20220;-62
2023/07/28 04:31:52;;;;;;;1.10;1.00;;;;;;;19.20;70.62;94852.56;4343595;32;20192;-62
2023/07/28 04:34:17;;;;;;;1.10;1.10;;;;;;;19.22;70.78;94847.59;4355064;32;20254;-62
2023/07/28 04:36:42;;;;;;;0.77;0.77;;;;;;;19.17;70.87;94849.81;4358353;32;20196;-63
2023/07/28 04:39:08;;;;;;;0.40;0.40;;;;;;;19.15;71.04;94855.53;4346536;32;20265;-62
2023/07/28 04:41:33;;;;;;;0.83;0.67;;;;;;;19.16;71.23;94854.41;4343001;32;20184;-62
2023/07/28 04:43:59;;;;;;;0.60;0.60;;;;;;;19.20;71.09;94852.56;4336709;32;20212;-62
2023/07/28 04:46:24;;;;;;;0.37;0.37;;;;;;;19.20;71.30;94847.19;4343012;32;20236;-62
2023/07/28 04:48:49;;;;;;;0.93;0.70;;;;;;;19.25;71.36;94848.03;4351211;32;20193;-62
2023/07/28 04:51:15;;;;;;;0.50;0.50;;;;;;;19.26;71.23;94852.25;4341124;32;20184;-63
2023/07/28 04:53:40;;;;;;;0.53;0.53;;;;;;;19.22;71.17;94855.66;4355430;32;20189;-63
2023/07/28 04:56:05;;;;;;;0.37;0.37;;;;;;;19.27;71.07;94869.97;4349924;32;20197;-62
2023/07/28 04:58:31;;;;;;;0.77;0.77;;;;;;;19.23;70.87;94867.97;4342731;32;20181;-62
2023/07/28 05:00:56;;;;;;;0.70;0.70;;;;;;;19.18;72.67;94868.28;4340763;32;20227;-62
2023/07/28 05:03:21;;;;;;;0.57;0.57;;;;;;;19.18;72.81;94865.59;4342468;32;20291;-60
2023/07/28 05:05:47;;;;;;;0.30;0.30;;;;;;;19.25;73.31;94872.22;4341113;32;20189;-62
2023/07/28 05:08:12;;;;;;;0.40;0.40;;;;;;;19.32;72.42;94888.50;4336136;32;20267;-62
2023/07/28 05:10:37;;;;;;;0.67;0.67;;;;;;;19.37;72.34;94880.09;4339627;32;20203;-62
2023/07/28 05:13:06;;;;;;;0.50;0.50;;;;;;;19.36;71.96;94865.09;4347711;32;20185;-62
2023/07/28 05:15:31;;;;;;;1.00;1.00;;;;;;;19.34;72.17;94878.91;4333421;32;20197;-62
2023/07/28 05:17:56;;;;;;;0.70;0.70;;;;;;;19.33;72.34;94873.91;4351109;32;20253;-63
2023/07/28 05:20:22;;;;;;;1.70;1.47;;;;;;;19.28;73.43;94882.28;4326695;32;20231;-60
2023/07/28 05:22:47;;;;;;;0.67;0.53;;;;;;;19.32;73.48;94880.44;4340069;32;20208;-63
2023/07/28 05:25:12;;;;;;;1.03;0.90;;;;;;;19.38;72.99;94878.97;4336067;32;20249;-62
2023/07/28 05:27:38;;;;;;;0.53;0.53;;;;;;;19.34;73.00;94881.59;4340129;32;20201;-62
2023/07/28 05:30:04;;;;;;;0.90;0.90;;;;;;;19.40;73.08;94887.47;4335816;32;20225;-62
2023/07/28 05:32:29;;;;;;;0.47;0.47;;;;;;;19.42;73.17;94885.97;4339894;32;20555;-62
2023/07/28 05:34:55;;;;;;;0.63;0.63;;;;;;;19.32;74.13;94891.97;4328770;32;20182;-62
2023/07/28 05:37:20;;;;;;;0.57;0.57;;;;;;;19.35;74.23;94890.44;4331926;32;20283;-62
2023/07/28 05:39:45;;;;;;;0.73;0.73;;;;;;;19.35;74.66;94893.13;4336612;32;20252;-63
2023/07/28 05:42:11;;;;;;;0.83;0.83;;;;;;;19.44;74.13;94896.38;4339808;32;21643;-62
2023/07/28 05:44:36;;;;;;;0.80;0.80;;;;;;;19.39;74.50;94899.34;4328017;32;20185;-62
2023/07/28 05:47:01;;;;;;;1.23;0.73;;;;;;;19.46;73.90;94905.62;4346226;32;20185;-62
2023/07/28 05:49:27;;;;;;;0.50;0.50;;;;;;;19.53;73.93;94902.31;4331594;32;20241;-62
2023/07/28 05:51:52;;;;;;;0.67;0.67;;;;;;;19.56;74.07;94907.75;4335367;32;20193;-62
2023/07/28 05:54:17;;;;;;;0.50;0.50;;;;;;;19.57;74.01;94903.13;4333517;32;20182;-62
2023/07/28 05:56:43;;;;;;;0.70;0.70;;;;;;;19.49;75.70;94904.16;4337782;32;20189;-62
2023/07/28 05:59:08;;;;;;;1.03;1.03;;;;;;;19.51;75.22;94905.38;4333027;32;20193;-62
2023/07/28 06:01:34;;;;;;;0.80;0.80;;;;;;;19.47;75.43;94909.09;4342145;32;20201;-62
2023/07/28 06:03:59;;;;;;;1.07;1.07;;;;;;;19.56;74.42;94912.34;4345259;32;20263;-62
2023/07/28 06:06:26;;;;;;;0.67;0.33;;;;;;;19.56;75.20;94915.03;4334507;32;20253;-62
2023/07/28 06:08:52;;;;;;;0.60;0.60;;;;;;;19.69;74.34;94916.41;4338862;32;20201;-63
2023/07/28 06:11:18;;;;;;;0.50;0.50;;;;;;;19.60;74.91;94942.78;4340376;32;20207;-62
2023/07/28 06:13:44;;;;;;;1.27;1.17;;;;;;;19.67;74.25;94940.22;4336956;32;20202;-62
2023/07/28 06:16:10;;;;;;;1.20;0.57;;;;;;;19.56;74.87;94936.56;4340992;32;20220;-62
2023/07/28 06:18:36;;;;;;;0.20;0.20;;;;;;;19.61;74.66;94935.50;4343873;32;20204;-62
2023/07/28 06:21:01;;;;;;;0.83;0.63;;;;;;;19.56;75.67;94936.56;4330594;32;20223;-62
2023/07/28 06:23:27;;;;;;;0.50;0.50;;;;;;;19.58;76.13;94934.28;4332811;32;20197;-62
2023/07/28 06:25:54;;;;;;;0.53;0.53;;;;;;;19.67;75.07;94934.06;4336499;32;20189;-62
2023/07/28 06:28:24;;;;;;;2.83;1.77;;;;;;;19.77;74.22;94936.12;4343579;32;20239;-62
2023/07/28 06:30:57;;;;;;;6.67;2.10;;;;;;;19.73;74.93;94944.19;4326464;32;20198;-62
2023/07/28 06:33:22;;;;;;;8.10;1.87;;;;;;;19.74;74.85;94953.81;4322876;32;20193;-62
2023/07/28 06:35:47;;;;;;;4.90;1.80;;;;;;;19.65;75.21;94964.03;4342324;32;20231;-62
2023/07/28 06:38:13;;;;;;;1.60;1.03;;;;;;;19.75;75.00;94958.03;4326047;32;20209;-62
2023/07/28 06:40:38;;;;;;;1.07;0.97;;;;;;;19.67;75.47;94955.59;4333126;32;20196;-62
2023/07/28 06:43:04;;;;;;;0.70;0.70;;;;;;;19.74;74.97;94961.09;4337737;32;20194;-62
2023/07/28 06:45:29;;;;;;;3.17;0.90;;;;;;;19.74;74.99;94958.41;4336105;32;20209;-62
2023/07/28 06:47:58;;;;;;;1.30;1.20;;;;;;;19.87;74.95;94957.84;4342048;32;20220;-62
2023/07/28 06:50:25;;;;;;;0.60;0.60;;;;;;;19.78;75.60;94957.31;4319903;32;20245;-62
2023/07/28 06:52:52;;;;;;;0.47;0.47;;;;;;;19.92;74.56;94972.16;4312285;32;20303;-62
2023/07/28 06:55:21;;;;;;;0.70;0.70;;;;;;;19.89;75.26;94969.03;4306637;32;20257;-63
2023/07/28 06:57:49;;;;;;;0.33;0.33;;;;;;;19.93;75.51;94965.63;4271989;32;20189;-62
2023/07/28 07:00:18;;;;;;;0.93;0.93;;;;;;;19.98;74.84;94968.00;4311326;32;20202;-62
2023/07/28 07:02:45;;;;;;;1.10;1.10;;;;;;;20.00;74.43;94973.78;4330837;32;20250;-63
2023/07/28 07:05:11;;;;;;;0.73;0.73;;;;;;;20.06;74.17;94972.34;4333162;32;20185;-62
2023/07/28 07:07:41;;;;;;;0.60;0.60;;;;;;;20.14;73.43;94968.66;4320035;32;20223;-63
2023/07/28 07:10:11;;;;;;;0.53;0.53;;;;;;;20.19;73.89;94971.78;4329537;32;20205;-62
2023/07/28 07:12:36;;;;;;;0.60;0.60;;;;;;;20.09;74.38;94960.88;4248208;32;20212;-62
2023/07/28 07:15:05;;;;;;;0.73;0.73;;;;;;;20.19;74.47;94966.41;4329914;32;20197;-62
2023/07/28 07:17:34;;;;;;;0.90;0.90;;;;;;;20.25;73.90;94978.41;4326954;32;20279;-63
2023/07/28 07:19:59;;;;;;;0.53;0.53;;;;;;;20.31;73.96;94975.41;4310683;32;20193;-62
2023/07/28 07:22:28;;;;;;;0.20;0.20;;;;;;;20.27;73.66;94967.28;4344113;32;20197;-62
2023/07/28 07:24:58;;;;;;;0.27;0.27;;;;;;;20.19;74.14;94961.00;4346970;32;20205;-62
2023/07/28 07:27:26;;;;;;;0.33;0.33;;;;;;;20.19;74.29;94965.63;4328051;32;20255;-62
2023/07/28 07:29:52;;;;;;;2.30;0.53;;;;;;;20.23;74.04;94961.06;4351838;32;20185;-61
2023/07/28 07:32:20;;;;;;;0.70;0.70;;;;;;;20.24;74.99;94963.41;4313872;32;20185;-62
2023/07/28 07:34:48;;;;;;;2.20;0.80;;;;;;;20.23;75.21;94963.75;4307567;32;20231;-62
2023/07/28 07:37:13;;;;;;;0.63;0.53;;;;;;;20.41;73.56;94964.03;4325164;32;20197;-68
2023/07/28 07:39:44;;;;;;;1.90;0.90;;;;;;;20.37;73.58;94968.63;4338231;32;20272;-68
2023/07/28 07:42:13;;;;;;;0.53;0.53;;;;;;;20.43;73.47;94962.53;4324142;32;20193;-70
2023/07/28 07:44:40;;;;;;;2.37;1.40;;;;;;;20.62;73.06;94958.91;4339041;32;20181;-68
2023/07/28 07:47:15;;;;;;;1.37;1.30;;;;;;;20.66;72.80;94957.06;4333491;32;20193;-69
2023/07/28 07:49:43;;;;;;;1.00;1.00;;;;;;;20.80;72.33;94968.00;4303664;32;20298;-68
2023/07/28 07:52:10;;;;;;;1.00;1.00;;;;;;;20.90;71.54;94961.97;4348120;32;20304;-69
2023/07/28 07:54:37;;;;;;;0.97;0.87;;;;;;;20.98;70.60;94970.94;4323937;32;20229;-68
2023/07/28 07:57:03;;;;;;;2.27;2.07;;;;;;;21.00;71.36;94965.91;4346210;32;20180;-69
2023/07/28 07:59:31;;;;;;;1.33;1.23;;;;;;;20.96;70.55;94964.34;4359214;32;20197;-71
2023/07/28 08:02:00;;;;;;;0.90;0.90;;;;;;;20.97;71.01;94960.50;4359786;32;20228;-70
2023/07/28 08:04:30;;;;;;;1.80;1.70;;;;;;;21.07;70.37;94960.63;4352622;32;20193;-72
2023/07/28 08:06:57;;;;;;;0.90;0.90;;;;;;;20.99;71.31;94958.97;4338261;32;20200;-70
2023/07/28 08:09:23;;;;;;;0.73;0.73;;;;;;;21.03;71.99;94956.31;4314196;32;20205;-69
2023/07/28 08:12:02;;;;;;;0.90;0.90;;;;;;;21.28;70.28;94957.41;4325256;32;20202;-69
2023/07/28 08:14:29;;;;;;;0.60;0.60;;;;;;;21.33;70.47;94956.28;4287599;32;20335;-69
2023/07/28 08:16:55;;;;;;;1.30;0.87;;;;;;;21.37;70.36;94959.81;4324873;32;20201;-71
2023/07/28 08:19:21;;;;;;;0.53;0.53;;;;;;;21.39;70.56;94957.50;4332697;32;20253;-71
2023/07/28 08:21:47;;;;;;;0.60;0.60;;;;;;;21.44;71.29;94959.84;4284267;32;20377;-71
2023/07/28 08:24:14;;;;;;;0.60;0.60;;;;;;;21.45;71.46;94974.91;4312605;32;20201;-71
2023/07/28 08:26:41;;;;;;;0.73;0.73;;;;;;;21.56;71.24;94967.69;4303769;32;20249;-69
2023/07/28 08:29:06;;;;;;;1.17;1.17;;;;;;;21.62;70.82;94961.56;4315747;32;20239;-70
2023/07/28 08:31:32;;;;;;;0.77;0.77;;;;;;;21.68;70.91;94964.72;4325106;32;20240;-69
2023/07/28 08:33:59;;;;;;;1.10;1.03;;;;;;;21.78;70.24;94963.25;4322179;32;20212;-69
2023/07/28 08:36:27;;;;;;;0.40;0.40;;;;;;;21.92;71.07;94964.16;4312598;32;20213;-68
2023/07/28 08:38:53;;;;;;;0.90;0.90;;;;;;;22.06;69.80;94970.81;4314085;32;20193;-70
2023/07/28 08:41:19;;;;;;;0.83;0.83;;;;;;;22.08;70.04;94968.53;4340506;32;20232;-70
2023/07/28 08:43:46;;;;;;;0.40;0.40;;;;;;;22.12;69.30;94972.03;4314480;32;20198;-67
2023/07/28 08:46:14;;;;;;;0.40;0.40;;;;;;;22.11;69.37;94967.78;4316378;32;20256;-69
2023/07/28 08:48:41;;;;;;;0.70;0.70;;;;;;;22.11;68.52;94973.97;4333305;32;20182;-68
2023/07/28 08:51:13;;;;;;;0.50;0.50;;;;;;;22.13;69.04;94971.66;4315690;32;20198;-67
2023/07/28 08:53:40;;;;;;;0.53;0.53;;;;;;;22.11;69.82;94967.78;4343123;32;20208;-68
2023/07/28 08:56:06;;;;;;;0.50;0.50;;;;;;;22.22;68.86;94974.03;4344200;32;20196;-67
2023/07/28 08:58:32;;;;;;;1.50;0.80;;;;;;;22.32;68.65;94970.63;4355388;32;20303;-68
2023/07/28 09:01:04;;;;;;;0.77;0.77;;;;;;;22.40;68.14;94966.81;4347042;32;20246;-69
2023/07/28 09:03:37;;;;;;;0.37;0.37;;;;;;;22.58;66.53;94966.91;4328882;32;20240;-68
2023/07/28 09:06:03;;;;;;;0.40;0.40;;;;;;;22.69;64.83;94965.03;4311048;32;20193;-68
2023/07/28 09:08:44;;;;;;;14.13;1.40;;;;;;;22.67;65.25;94972.75;4331457;32;20221;-67
2023/07/28 09:11:14;;;;;;;0.53;0.53;;;;;;;22.67;66.18;94969.25;4340829;32;20205;-67
2023/07/28 09:13:43;;;;;;;0.83;0.83;;;;;;;22.67;65.48;94970.03;4321892;32;20296;-68
2023/07/28 09:16:20;;;;;;;0.43;0.43;;;;;;;22.68;64.48;94973.53;4338053;32;20192;-69
2023/07/28 09:18:47;;;;;;;0.40;0.40;;;;;;;22.68;64.64;94981.62;4315473;32;20241;-69
2023/07/28 09:21:20;;;;;;;0.70;0.70;;;;;;;22.57;65.41;94993.19;4307542;32;20202;-67
2023/07/28 09:23:48;;;;;;;0.43;0.43;;;;;;;22.52;65.88;94988.13;4313482;32;20200;-67
2023/07/28 09:26:16;;;;;;;2.13;0.73;;;;;;;22.39;66.43;94995.00;4318255;32;20201;-68
2023/07/28 09:28:42;;;;;;;0.37;0.37;;;;;;;22.43;65.73;94985.00;4306887;32;20198;-67
2023/07/28 09:31:10;;;;;;;2.67;0.60;;;;;;;22.41;64.82;94986.53;4294651;32;20217;-68
2023/07/28 09:33:37;;;;;;;0.97;0.97;;;;;;;22.33;66.18;94996.50;4343728;32;20189;-68
2023/07/28 09:36:11;;;;;;;0.20;0.20;;;;;;;22.34;66.16;94992.66;4318861;32;20330;-67
2023/07/28 09:38:44;;;;;;;0.17;0.17;;;;;;;22.34;65.36;94998.06;4320030;32;20189;-70
2023/07/28 09:41:11;;;;;;;1.07;0.97;;;;;;;22.29;66.10;94987.59;4339769;32;20232;-68
2023/07/28 09:43:43;;;;;;;0.53;0.53;;;;;;;22.31;66.03;94990.69;4355228;32;20227;-68
2023/07/28 09:46:10;;;;;;;0.23;0.23;;;;;;;22.30;66.32;94997.25;4323254;32;20204;-68
2023/07/28 09:48:38;;;;;;;0.87;0.87;;;;;;;22.28;66.37;94989.53;4324539;32;20228;-68
2023/07/28 09:51:19;;;;;;;1.30;0.83;;;;;;;22.24;66.93;94994.13;4313197;32;20300;-68
2023/07/28 09:53:57;;;;;;;0.33;0.33;;;;;;;22.22;67.16;94990.25;4310408;32;20212;-68
2023/07/28 09:56:37;;;;;;;0.80;0.80;;;;;;;22.23;67.17;95000.69;4307958;32;20201;-69
2023/07/28 09:59:10;;;;;;;0.80;0.80;;;;;;;22.30;66.58;94991.84;4339679;32;20281;-68
2023/07/28 10:01:37;;;;;;;0.30;0.30;;;;;;;22.37;65.73;94981.09;4306923;32;20189;-65
2023/07/28 10:04:03;;;;;;;0.73;0.73;;;;;;;22.37;65.89;94986.50;4307115;32;20278;-65
2023/07/28 10:06:37;;;;;;;3.80;2.57;;;;;;;22.44;65.59;94983.84;4324385;32;20200;-64
2023/07/28 10:09:08;;;;;;;13.03;8.27;;;;;;;22.44;66.19;94981.16;4319419;32;20266;-65
2023/07/28 10:11:34;;;;;;;3.83;2.97;;;;;;;22.53;66.17;94984.28;4313613;32;20198;-65
2023/07/28 10:13:59;;;;;;;1.27;1.27;;;;;;;22.58;66.37;94977.75;4345296;32;20268;-65
2023/07/28 10:16:37;;;;;;;3.30;3.07;;;;;;;22.60;66.25;94976.22;4345446;32;20192;-65
2023/07/28 10:19:03;;;;;;;3.57;1.00;;;;;;;22.63;66.91;94978.16;4359929;32;20311;-65
2023/07/28 10:21:29;;;;;;;2.67;1.73;;;;;;;22.67;66.33;94988.19;4342786;32;20197;-65
2023/07/28 10:23:56;;;;;;;1.17;1.07;;;;;;;22.67;66.80;94988.97;4338316;32;20197;-65
2023/07/28 10:26:38;;;;;;;0.97;0.97;;;;;;;22.59;65.62;94980.06;4344387;32;20214;-65
2023/07/28 10:29:14;;;;;;;0.50;0.50;;;;;;;22.54;66.82;94991.22;4342420;32;20193;-64
2023/07/28 10:31:54;;;;;;;7.10;1.50;;;;;;;22.62;64.87;94992.06;4348045;32;20203;-65
2023/07/28 10:34:21;;;;;;;0.70;0.70;;;;;;;22.63;64.14;94988.19;4345149;32;20326;-64
2023/07/28 10:36:47;;;;;;;0.47;0.47;;;;;;;22.65;63.37;94987.81;4345776;32;20235;-65
2023/07/28 10:39:14;;;;;;;1.10;1.10;;;;;;;22.69;62.23;94991.31;4344374;32;20190;-65
2023/07/28 10:42:08;;;;;;;2.40;0.40;;;;;;;22.61;62.61;94985.87;4347819;32;20185;-65
2023/07/28 10:44:34;;;;;;;0.20;0.20;;;;;;;22.65;62.52;94990.53;4341259;32;20244;-65
2023/07/28 10:47:01;;;;;;;0.40;0.40;;;;;;;22.62;63.57;94995.53;4344743;32;20186;-65
2023/07/28 10:49:27;;;;;;;0.40;0.40;;;;;;;22.58;63.14;94999.38;4344872;32;20216;-65
2023/07/28 10:51:52;;;;;;;0.30;0.30;;;;;;;22.60;62.54;95000.56;4352922;32;20189;-65
2023/07/28 10:54:19;;;;;;;0.43;0.43;;;;;;;22.55;63.32;94998.19;4341128;32;20186;-65
2023/07/28 10:56:48;;;;;;;0.30;0.30;;;;;;;22.50;64.27;95000.47;4359986;32;20288;-65
2023/07/28 10:59:15;;;;;;;0.50;0.50;;;;;;;22.56;63.85;94998.97;4343333;32;20261;-65
2023/07/28 11:01:41;;;;;;;0.67;0.67;;;;;;;22.64;63.26;95000.56;4352730;32;20227;-65
2023/07/28 11:04:15;;;;;;;0.80;0.80;;;;;;;22.65;63.75;94998.66;4357586;32;20207;-65
2023/07/28 11:06:43;;;;;;;1.53;0.73;;;;;;;22.67;63.13;95004.41;4349631;32;20206;-65
2023/07/28 11:09:09;;;;;;;0.80;0.80;;;;;;;22.72;63.72;94999.44;4345383;32;20203;-64
2023/07/28 11:11:36;;;;;;;0.40;0.40;;;;;;;22.81;62.88;95015.38;4349322;32;20200;-64
2023/07/28 11:14:04;;;;;;;0.43;0.40;;;;;;;22.84;62.94;95004.56;4344111;32;20272;-65
2023/07/28 11:16:32;;;;;;;0.90;0.90;;;;;;;22.86;63.71;95001.50;4344750;32;20205;-66
2023/07/28 11:19:02;;;;;;;0.63;0.63;;;;;;;22.88;63.84;95008.03;4356720;32;20256;-64
2023/07/28 11:21:28;;;;;;;0.40;0.40;;;;;;;22.87;63.74;95003.00;4343106;32;20185;-64
2023/07/28 11:23:53;;;;;;;0.83;0.83;;;;;;;22.85;63.35;94995.31;4345654;32;20185;-66
2023/07/28 11:26:20;;;;;;;0.50;0.50;;;;;;;22.92;63.38;95010.78;4348489;32;20185;-64
2023/07/28 11:28:46;;;;;;;1.13;0.50;;;;;;;23.07;63.54;94998.09;4340338;32;20235;-65
2023/07/28 11:31:11;;;;;;;1.17;1.00;;;;;;;22.96;63.61;94995.34;4347085;32;20197;-65
2023/07/28 11:33:36;;;;;;;1.03;1.00;;;;;;;22.92;63.64;94999.94;4344628;32;20197;-65